Terminal Aerodrome Forecast
Issued by NWS

Home | Current Version | Previous Version | Text Only | Print | Product List | Glossary On
Versions: 1 2 3 4 5 6 7 8 9 10 11 12 13 14 15 16 17 18 19 20 21 22 23 24 25 26 27 28 29 30 31 32 33 34
890
FTUS41 KOKX 170246 AAA
TAFTEB
TAF AMD
KTEB 170246Z 1703/1724 VRB05KT P6SM OVC090
     FM171100 VRB02KT P6SM SCT020 OVC050
     FM171400 VRB03KT 5SM -RA BKN025 OVC040
     FM171900 VRB04KT 2SM -RA BR BKN008 OVC015=

USA.gov is the U.S. government's official web portal to all federal, state and local government web resources and services.